Time;durP1;ratioP1;P1;durP2;ratioP2;P2;SDS_P1;SDS_P2;PMS_P1;PMS_P2;Temp;Humidity;BMP_temperature;BMP_pressure;BME280_temperature;BME280_humidity;BME280_pressure;Samples;Min_cycle;Max_cycle;Signal;HPM_P1;HPM_P2
2023/06/21 00:01:57;;;;;;;13.80;7.40;;;;;;;18.66;90.74;99859.03;105565;1261;73282;-65
2023/06/21 00:04:44;;;;;;;11.90;6.90;;;;;;;18.68;90.71;99861.68;105770;1259;59227;-64
2023/06/21 00:07:31;;;;;;;14.80;7.60;;;;;;;18.69;90.53;99863.90;105737;1256;60915;-65
2023/06/21 00:10:25;;;;;;;13.90;7.40;;;;;;;18.68;90.37;99870.23;105596;1256;73028;-65
2023/06/21 00:13:12;;;;;;;12.00;7.00;;;;;;;18.68;90.36;99868.98;105621;1256;67334;-66
2023/06/21 00:16:01;;;;;;;12.60;7.40;;;;;;;18.68;90.54;99870.02;105536;1263;73268;-64
2023/06/21 00:18:47;;;;;;;15.20;7.20;;;;;;;18.71;90.70;99868.48;105575;1257;59747;-65
2023/06/21 00:21:38;;;;;;;12.90;7.40;;;;;;;18.72;90.51;99867.24;105579;1259;59792;-65
2023/06/21 00:24:25;;;;;;;11.40;6.80;;;;;;;18.71;90.40;99863.08;105797;1256;73035;-66
2023/06/21 00:27:12;;;;;;;12.30;7.20;;;;;;;18.71;90.48;99859.30;105749;1260;68418;-65
2023/06/21 00:29:58;;;;;;;13.20;7.80;;;;;;;18.70;90.61;99857.48;105961;1254;74114;-64
2023/06/21 00:32:48;;;;;;;12.20;7.70;;;;;;;18.70;90.78;99857.83;106025;1251;59318;-64
2023/06/21 00:35:37;;;;;;;11.60;6.90;;;;;;;18.71;90.92;99860.02;105922;1254;60557;-65
2023/06/21 00:38:24;;;;;;;13.20;7.40;;;;;;;18.73;91.12;99860.21;105739;1254;72102;-64
2023/06/21 00:41:11;;;;;;;12.10;7.60;;;;;;;18.74;91.20;99858.30;105707;1254;69499;-64
2023/06/21 00:43:58;;;;;;;13.10;7.50;;;;;;;18.75;91.04;99856.70;105353;1252;72942;-64
2023/06/21 00:46:49;;;;;;;12.80;7.10;;;;;;;18.74;91.18;99848.58;105591;1253;59660;-64
2023/06/21 00:49:36;;;;;;;13.60;7.80;;;;;;;18.75;91.32;99846.98;105072;1251;1003725;-63
2023/06/21 00:52:25;;;;;;;13.60;7.90;;;;;;;18.76;91.21;99842.77;105752;1256;72926;-63
2023/06/21 00:55:13;;;;;;;14.70;8.20;;;;;;;18.76;91.40;99840.98;105697;1256;68567;-63
2023/06/21 00:57:59;;;;;;;15.30;8.10;;;;;;;18.76;91.38;99840.98;105577;1251;71931;-63
2023/06/21 01:00:49;;;;;;;16.90;8.50;;;;;;;18.76;91.66;99837.41;105887;1257;60013;-64
2023/06/21 01:03:37;;;;;;;14.60;8.40;;;;;;;18.77;91.66;99846.47;105800;1254;61259;-65
2023/06/21 01:06:35;;;;;;;12.40;7.80;;;;;;;18.78;91.57;99847.11;105608;1254;72763;-64
2023/06/21 01:10:00;;;;;;;15.30;8.00;;;;;;;18.77;91.86;99847.17;105806;1255;68347;-64
2023/06/21 01:13:04;;;;;;;12.50;7.30;;;;;;;18.78;92.17;99853.83;105792;1251;71259;-63
2023/06/21 01:16:38;;;;;;;11.60;7.70;;;;;;;18.79;92.28;99851.94;105997;1253;59281;-64
2023/06/21 01:20:01;;;;;;;13.90;8.10;;;;;;;18.78;92.30;99852.02;105200;1260;60505;-64
2023/06/21 01:22:51;;;;;;;14.70;7.80;;;;;;;18.78;92.47;99845.29;104914;1268;72747;-65
2023/06/21 01:25:59;;;;;;;12.20;7.20;;;;;;;18.75;92.68;99844.84;104474;1273;68348;-64
2023/06/21 01:29:04;;;;;;;13.90;7.50;;;;;;;18.72;93.05;99841.95;104921;1268;74229;-64
2023/06/21 01:31:55;;;;;;;13.50;8.00;;;;;;;18.70;92.92;99840.91;104985;1267;59216;-65
2023/06/21 01:34:42;;;;;;;13.20;7.60;;;;;;;18.69;93.26;99835.26;104974;1271;59868;-64
2023/06/21 01:37:29;;;;;;;11.70;6.70;;;;;;;18.67;93.61;99830.13;104786;1268;72835;-65
2023/06/21 01:40:16;;;;;;;11.60;7.20;;;;;;;18.66;93.69;99825.04;104806;1272;68460;-64
2023/06/21 01:43:05;;;;;;;14.10;7.90;;;;;;;18.66;93.73;99822.35;104786;1268;73689;-64
2023/06/21 01:45:53;;;;;;;13.60;8.30;;;;;;;18.66;93.78;99818.41;104756;1273;59151;-64
2023/06/21 01:48:43;;;;;;;13.50;7.70;;;;;;;18.66;93.71;99813.39;104898;1268;60812;-64
2023/06/21 01:51:30;;;;;;;14.70;8.00;;;;;;;18.66;93.48;99810.12;104737;1268;72642;-64
2023/06/21 01:54:20;;;;;;;14.50;7.60;;;;;;;18.65;93.43;99811.63;105473;1259;69623;-64
2023/06/21 01:57:08;;;;;;;12.10;7.50;;;;;;;18.65;93.58;99815.60;105763;1254;73744;-63
2023/06/21 01:59:55;;;;;;;12.80;7.70;;;;;;;18.66;93.52;99816.27;105874;1252;59340;-65
2023/06/21 02:03:09;;;;;;;12.10;7.70;;;;;;;18.66;93.49;99818.07;105710;1252;59344;-63
2023/06/21 02:06:00;;;;;;;12.30;7.60;;;;;;;18.65;93.45;99808.64;105772;1254;72736;-64
2023/06/21 02:08:49;;;;;;;13.10;7.20;;;;;;;18.64;93.78;99806.39;105715;1255;68422;-64
2023/06/21 02:11:36;;;;;;;14.10;7.50;;;;;;;18.63;93.81;99807.48;105662;1252;73258;-63
2023/06/21 02:14:23;;;;;;;13.20;7.90;;;;;;;18.60;93.92;99807.29;105736;1259;59790;-63
2023/06/21 02:17:10;;;;;;;13.90;7.50;;;;;;;18.58;94.16;99811.41;105705;1257;59751;-64
2023/06/21 02:19:58;;;;;;;10.70;6.50;;;;;;;18.55;94.51;99812.11;105649;1254;72901;-65
2023/06/21 02:22:48;;;;;;;11.70;7.60;;;;;;;18.52;94.95;99814.07;105060;1254;1003753;-64
2023/06/21 02:25:36;;;;;;;12.70;7.30;;;;;;;18.51;94.94;99810.10;105913;1255;73003;-63
2023/06/21 02:28:23;;;;;;;13.20;8.00;;;;;;;18.50;94.94;99805.63;105784;1257;59944;-64
2023/06/21 02:31:11;;;;;;;13.00;7.20;;;;;;;18.50;95.16;99811.47;106167;1252;61879;-64
2023/06/21 02:33:57;;;;;;;12.90;7.20;;;;;;;18.51;95.14;99813.70;105893;1257;72838;-64
2023/06/21 02:36:53;;;;;;;12.90;7.60;;;;;;;18.51;95.20;99813.98;106025;1254;69452;-64
2023/06/21 02:39:39;;;;;;;12.70;7.30;;;;;;;18.53;95.15;99818.08;105963;1254;73299;-64
2023/06/21 02:42:29;;;;;;;12.50;7.70;;;;;;;18.53;95.11;99821.70;105608;1262;59282;-64
2023/06/21 02:45:17;;;;;;;13.00;7.80;;;;;;;18.51;95.17;99824.95;105876;1254;59993;-63
2023/06/21 02:48:04;;;;;;;11.50;6.90;;;;;;;18.50;95.50;99820.79;105174;1252;1002856;-63
2023/06/21 02:50:51;;;;;;;13.20;7.80;;;;;;;18.49;95.69;99823.71;106059;1253;67331;-63
2023/06/21 02:53:38;;;;;;;13.60;7.20;;;;;;;18.50;95.87;99820.95;105994;1254;73276;-64
2023/06/21 02:56:25;;;;;;;13.70;7.90;;;;;;;18.52;95.96;99822.89;104866;1261;1003643;-64
2023/06/21 02:59:12;;;;;;;13.80;7.60;;;;;;;18.55;96.06;99820.73;104960;1257;1002909;-63
2023/06/21 03:02:00;;;;;;;13.10;7.60;;;;;;;18.58;95.97;99817.20;105695;1257;71509;-63
2023/06/21 03:04:49;;;;;;;13.50;7.50;;;;;;;18.60;96.03;99814.94;105718;1257;69348;-64
2023/06/21 03:07:35;;;;;;;13.20;7.60;;;;;;;18.60;96.15;99818.16;105663;1259;73360;-63
2023/06/21 03:10:23;;;;;;;13.30;7.70;;;;;;;18.61;96.54;99821.30;105450;1262;60080;-63
2023/06/21 03:13:10;;;;;;;11.00;7.30;;;;;;;18.63;96.86;99827.09;105738;1259;61851;-62
2023/06/21 03:15:58;;;;;;;11.70;7.50;;;;;;;18.62;96.62;99826.92;105319;1260;72651;-63
2023/06/21 03:18:45;;;;;;;12.20;7.40;;;;;;;18.62;96.76;99824.64;105285;1262;68971;-63
2023/06/21 03:21:34;;;;;;;10.70;6.80;;;;;;;18.62;96.89;99819.00;105434;1258;73482;-64
2023/06/21 03:24:21;;;;;;;10.80;6.90;;;;;;;18.66;96.92;99816.46;104753;1260;1003303;-64
2023/06/21 03:27:11;;;;;;;11.80;7.00;;;;;;;18.67;96.97;99812.29;105436;1259;59964;-64
2023/06/21 03:29:57;;;;;;;12.90;8.00;;;;;;;18.70;96.97;99814.63;105990;1257;72706;-62
2023/06/21 03:32:47;;;;;;;12.70;6.90;;;;;;;18.73;96.92;99811.48;104847;1259;1066074;-62
2023/06/21 03:35:37;;;;;;;12.70;7.10;;;;;;;18.77;96.99;99805.34;105618;1259;73068;-62
2023/06/21 03:38:23;;;;;;;10.60;6.80;;;;;;;18.80;96.73;99802.64;105866;1261;60152;-63
2023/06/21 03:41:10;;;;;;;10.50;6.90;;;;;;;18.82;96.88;99801.07;109174;1259;59113;-64
2023/06/21 03:43:58;;;;;;;12.20;7.00;;;;;;;18.84;96.75;99803.15;109122;1257;72128;-67
2023/06/21 03:46:44;;;;;;;11.20;6.90;;;;;;;18.90;96.75;99803.75;109255;1251;67982;-64
2023/06/21 03:49:32;;;;;;;13.00;7.10;;;;;;;18.96;96.50;99799.48;109299;1251;72440;-64
2023/06/21 03:52:18;;;;;;;12.20;7.10;;;;;;;19.03;96.47;99799.57;109322;1251;59647;-65
2023/06/21 03:55:08;;;;;;;13.10;7.40;;;;;;;19.10;96.06;99799.51;109269;1251;60056;-65
2023/06/21 03:57:56;;;;;;;10.30;6.60;;;;;;;19.18;95.77;99795.49;109459;1253;73061;-66
2023/06/21 04:00:43;;;;;;;11.50;6.80;;;;;;;19.26;95.48;99797.30;109232;1254;66274;-68
2023/06/21 04:03:31;;;;;;;11.30;6.60;;;;;;;19.35;95.02;99798.69;109340;1252;71389;-65
2023/06/21 04:06:17;;;;;;;12.40;6.70;;;;;;;19.46;94.55;99798.02;109490;1252;59343;-65
2023/06/21 04:09:05;;;;;;;13.10;7.10;;;;;;;19.54;94.02;99797.90;109543;1251;58798;-66
2023/06/21 04:11:51;;;;;;;15.00;6.80;;;;;;;19.61;93.37;99799.06;109345;1251;71004;-67
2023/06/21 04:14:39;;;;;;;12.70;7.50;;;;;;;19.66;92.78;99798.91;109605;1252;66719;-66
2023/06/21 04:17:27;;;;;;;12.40;7.10;;;;;;;19.68;92.15;99795.45;108590;1251;1002897;-65
2023/06/21 04:20:15;;;;;;;10.20;6.70;;;;;;;19.72;91.98;99797.67;109400;1251;57099;-63
2023/06/21 04:23:01;;;;;;;12.20;6.30;;;;;;;19.76;91.55;99796.89;109655;1251;58772;-64
2023/06/21 04:25:48;;;;;;;18.20;7.30;;;;;;;19.78;91.02;99796.47;109355;1251;72638;-66
2023/06/21 04:28:35;;;;;;;12.30;6.90;;;;;;;19.81;90.55;99792.92;109544;1251;68293;-65
2023/06/21 04:31:25;;;;;;;10.90;7.20;;;;;;;19.87;90.45;99788.56;109352;1251;73562;-64
2023/06/21 04:34:15;;;;;;;15.30;7.90;;;;;;;19.97;90.10;99794.76;109522;1251;58614;-67
2023/06/21 04:37:05;;;;;;;10.70;7.10;;;;;;;20.04;89.54;99793.15;109546;1251;58870;-64
2023/06/21 04:39:55;;;;;;;12.30;7.90;;;;;;;20.12;88.84;99795.65;109188;1256;73223;-67
2023/06/21 04:43:01;;;;;;;11.90;7.00;;;;;;;20.16;88.38;99785.73;109043;1256;66309;-63
2023/06/21 04:45:48;;;;;;;15.70;7.70;;;;;;;20.24;87.90;99786.41;108965;1256;72822;-66
2023/06/21 04:48:37;;;;;;;11.60;7.40;;;;;;;20.30;87.48;99792.64;108997;1256;59471;-68
2023/06/21 04:51:25;;;;;;;11.40;7.00;;;;;;;20.36;86.55;99795.67;109090;1256;58876;-61
2023/06/21 04:54:11;;;;;;;13.00;7.10;;;;;;;20.42;86.17;99795.36;109184;1256;72161;-65
2023/06/21 04:56:58;;;;;;;11.00;6.80;;;;;;;20.45;85.78;99783.42;109175;1256;65682;-68
2023/06/21 04:59:46;;;;;;;11.70;7.10;;;;;;;20.57;85.35;99784.27;109209;1257;71689;-65
2023/06/21 05:02:33;;;;;;;12.00;7.50;;;;;;;20.68;84.88;99777.40;109065;1256;57888;-68
2023/06/21 05:05:19;;;;;;;14.00;7.60;;;;;;;20.77;84.25;99773.05;109185;1256;58692;-66
2023/06/21 05:08:07;;;;;;;13.30;7.10;;;;;;;20.87;84.07;99772.95;109035;1260;72144;-67
2023/06/21 05:10:53;;;;;;;10.80;7.00;;;;;;;21.00;83.43;99765.95;109342;1251;67875;-67
2023/06/21 05:13:40;;;;;;;13.80;7.60;;;;;;;21.12;82.82;99773.86;109602;1251;71539;-66
2023/06/21 05:16:29;;;;;;;12.60;7.10;;;;;;;21.23;81.96;99772.38;109586;1251;57693;-67
2023/06/21 05:19:16;;;;;;;13.40;7.80;;;;;;;21.34;81.28;99768.75;109592;1250;59021;-65
2023/06/21 05:22:03;;;;;;;12.10;7.90;;;;;;;21.44;80.94;99773.31;109639;1250;70995;-66
2023/06/21 05:24:49;;;;;;;13.90;7.20;;;;;;;21.58;80.75;99772.73;109763;1251;68932;-66
2023/06/21 05:27:36;;;;;;;14.40;7.60;;;;;;;21.74;80.27;99764.75;109384;1251;73019;-67
2023/06/21 05:30:22;;;;;;;10.80;7.40;;;;;;;21.92;79.50;99763.81;108677;1251;1208745;-68
2023/06/21 05:33:08;;;;;;;12.70;7.10;;;;;;;22.11;78.55;99767.09;109462;1251;57920;-67
2023/06/21 05:35:55;;;;;;;13.70;7.70;;;;;;;22.32;77.47;99760.06;109544;1251;70751;-67
2023/06/21 05:38:44;;;;;;;14.80;7.40;;;;;;;22.53;76.77;99764.89;109554;1251;67664;-67
2023/06/21 05:41:31;;;;;;;13.20;7.50;;;;;;;22.72;75.74;99764.46;109567;1251;72397;-69
2023/06/21 05:44:17;;;;;;;12.20;7.60;;;;;;;22.91;74.91;99767.57;108737;1251;1002471;-68
2023/06/21 05:47:04;;;;;;;14.30;7.40;;;;;;;23.11;74.10;99768.14;109417;1253;60376;-67
2023/06/21 05:49:50;;;;;;;14.10;7.60;;;;;;;23.22;72.80;99765.70;109667;1251;71999;-68
2023/06/21 05:52:37;;;;;;;12.20;7.80;;;;;;;23.33;72.31;99768.23;109683;1251;68055;-68
2023/06/21 05:55:24;;;;;;;14.40;7.60;;;;;;;23.50;71.59;99762.36;109381;1253;73821;-77
2023/06/21 05:58:11;;;;;;;11.60;7.40;;;;;;;23.87;70.98;99755.38;109477;1252;59147;-81
2023/06/21 06:00:59;;;;;;;13.00;7.90;;;;;;;24.34;69.76;99751.41;109052;1256;60772;-82
2023/06/21 06:04:02;;;;;;;14.30;7.60;;;;;;;24.74;68.25;99756.07;109073;1256;70838;-82
2023/06/21 06:06:49;;;;;;;13.60;7.50;;;;;;;24.97;67.35;99752.48;109040;1256;66358;-82
2023/06/21 06:09:35;;;;;;;12.70;7.40;;;;;;;25.14;66.57;99740.73;109121;1256;72646;-75
2023/06/21 06:12:22;;;;;;;12.00;7.30;;;;;;;25.42;65.72;99745.15;109103;1256;58438;-76
2023/06/21 06:15:09;;;;;;;11.80;7.30;;;;;;;26.25;63.82;99745.58;109013;1256;58934;-74
2023/06/21 06:17:59;;;;;;;11.60;7.50;;;;;;;27.46;60.37;99745.27;109157;1257;73176;-77
2023/06/21 06:20:46;;;;;;;14.00;6.80;;;;;;;28.45;56.61;99742.52;109066;1256;68279;-76
2023/06/21 06:23:37;;;;;;;14.70;8.00;;;;;;;28.83;54.01;99742.30;108983;1256;72589;-80
2023/06/21 06:26:26;;;;;;;12.50;7.10;;;;;;;28.85;52.37;99740.64;109102;1256;57439;-81
2023/06/21 06:29:13;;;;;;;12.90;7.70;;;;;;;28.81;51.15;99740.99;109126;1257;58914;-82
2023/06/21 06:32:01;;;;;;;10.30;7.10;;;;;;;28.68;51.85;99738.05;109347;1251;72746;-79
2023/06/21 06:34:54;;;;;;;11.70;6.70;;;;;;;28.70;52.57;99740.88;109458;1254;67972;-79
2023/06/21 06:37:41;;;;;;;12.40;7.10;;;;;;;28.57;53.27;99742.97;109180;1256;72714;-82
2023/06/21 06:40:28;;;;;;;12.60;7.90;;;;;;;28.32;53.12;99741.20;109153;1254;57019;-82
2023/06/21 06:43:16;;;;;;;11.90;8.50;;;;;;;28.06;53.38;99733.35;109156;1260;58975;-80
2023/06/21 06:46:03;;;;;;;13.60;7.70;;;;;;;27.77;54.02;99731.01;109337;1254;72025;-79
2023/06/21 06:48:50;;;;;;;11.60;7.60;;;;;;;27.87;54.67;99722.98;109355;1254;66802;-79
2023/06/21 06:51:37;;;;;;;11.90;7.50;;;;;;;28.34;54.01;99716.28;109147;1254;71275;-77
2023/06/21 06:54:24;;;;;;;11.90;7.30;;;;;;;29.50;51.85;99706.11;109150;1254;57554;-80
2023/06/21 06:57:12;;;;;;;12.70;7.40;;;;;;;30.77;48.86;99701.58;108982;1258;58831;-79
2023/06/21 07:00:17;;;;;;;11.40;6.60;;;;;;;32.08;45.79;99693.65;108970;1258;70694;-83
2023/06/21 07:03:04;;;;;;;12.50;6.70;;;;;;;33.16;42.59;99687.13;108873;1266;67000;-79
2023/06/21 07:05:52;;;;;;;12.50;6.10;;;;;;;34.07;40.59;99696.10;108860;1260;71429;-77
2023/06/21 07:08:44;;;;;;;11.70;6.40;;;;;;;34.96;38.91;99685.04;109050;1258;58423;-80
2023/06/21 07:11:34;;;;;;;10.40;5.90;;;;;;;35.68;36.44;99679.19;109006;1259;59099;-83
2023/06/21 07:14:25;;;;;;;11.30;6.20;;;;;;;36.20;35.31;99673.19;109088;1259;72167;-81
2023/06/21 07:17:13;;;;;;;13.20;6.30;;;;;;;36.88;34.19;99675.83;109081;1258;67775;-81
2023/06/21 07:20:06;;;;;;;13.70;6.20;;;;;;;37.37;32.95;99676.86;108899;1258;72589;-81
2023/06/21 07:23:03;;;;;;;15.90;6.00;;;;;;;37.77;32.54;99678.83;108996;1260;57762;-82
2023/06/21 07:25:51;;;;;;;10.50;5.60;;;;;;;38.25;31.62;99674.90;109046;1258;60503;-83
2023/06/21 07:28:38;;;;;;;11.10;5.80;;;;;;;38.53;30.79;99675.24;109152;1254;72270;-84
2023/06/21 07:31:40;;;;;;;11.10;5.90;;;;;;;38.70;30.46;99672.73;109238;1254;66761;-79
2023/06/21 07:34:29;;;;;;;10.40;6.20;;;;;;;38.78;30.11;99664.45;109078;1256;71798;-84
2023/06/21 07:37:22;;;;;;;11.60;6.20;;;;;;;38.91;29.59;99668.11;109139;1254;57085;-83
2023/06/21 07:40:17;;;;;;;14.10;5.80;;;;;;;38.96;29.01;99667.73;109376;1251;60411;-82
2023/06/21 07:43:08;;;;;;;12.20;5.90;;;;;;;39.15;28.88;99668.05;109535;1251;73278;-80
2023/06/21 07:45:54;;;;;;;11.70;6.80;;;;;;;39.28;28.26;99667.90;109570;1251;66530;-81
2023/06/21 07:49:03;;;;;;;14.10;6.90;;;;;;;38.76;27.85;99671.48;109576;1251;73131;-80
2023/06/21 07:51:52;;;;;;;12.30;5.80;;;;;;;38.64;28.74;99664.95;109636;1254;57809;-79
2023/06/21 07:54:42;;;;;;;11.60;6.80;;;;;;;38.92;28.12;99663.96;109555;1251;59068;-77
2023/06/21 07:57:30;;;;;;;10.90;6.90;;;;;;;38.65;27.93;99667.64;109463;1251;72291;-85
2023/06/21 08:00:17;;;;;;;13.40;6.70;;;;;;;38.47;28.37;99667.88;109607;1251;68107;-82
2023/06/21 08:03:04;;;;;;;11.80;6.90;;;;;;;38.18;28.74;99665.61;109504;1251;73270;-82
2023/06/21 08:05:51;;;;;;;14.80;7.10;;;;;;;38.22;28.81;99659.30;109543;1251;57816;-77
2023/06/21 08:08:37;;;;;;;13.30;7.10;;;;;;;38.33;29.02;99651.95;109831;1251;58933;-75
2023/06/21 08:13:31;;;;;;;13.00;7.30;;;;;;;38.58;28.33;99648.27;105308;1293;599836;-78
2023/06/21 08:16:21;;;;;;;15.50;7.50;;;;;;;38.69;28.04;99652.21;107690;1260;59360;-76
2023/06/21 08:19:08;;;;;;;11.20;6.70;;;;;;;38.85;28.10;99658.81;105664;1260;59677;-79
2023/06/21 08:21:55;;;;;;;13.50;6.90;;;;;;;39.13;27.63;99657.95;105487;1264;70543;-81
2023/06/21 08:24:42;;;;;;;13.80;7.60;;;;;;;38.35;28.18;99658.88;105910;1261;66490;-78
2023/06/21 08:27:29;;;;;;;14.00;8.80;;;;;;;37.51;29.05;99660.55;105895;1257;185909;-79
2023/06/21 08:30:16;;;;;;;17.10;9.70;;;;;;;36.51;30.57;99663.90;106114;1258;59234;-83
2023/06/21 08:33:03;;;;;;;19.60;8.10;;;;;;;35.69;31.69;99670.04;106559;1259;61508;-81
2023/06/21 08:35:50;;;;;;;15.60;8.80;;;;;;;35.10;33.20;99670.09;106027;1257;69469;-84
2023/06/21 08:38:36;;;;;;;14.40;8.50;;;;;;;35.28;33.43;99667.42;106396;1257;66577;-79
2023/06/21 08:41:24;;;;;;;12.90;8.90;;;;;;;35.67;33.12;99664.20;105417;1261;73228;-73
2023/06/21 08:44:10;;;;;;;18.40;8.80;;;;;;;35.80;33.02;99663.75;105740;1257;59251;-66
2023/06/21 08:47:00;;;;;;;13.50;8.30;;;;;;;36.27;32.40;99655.71;105431;1263;59779;-68
2023/06/21 08:49:49;;;;;;;15.50;8.60;;;;;;;36.78;31.66;99655.76;105277;1258;71612;-74
2023/06/21 08:52:37;;;;;;;15.80;8.90;;;;;;;37.02;30.90;99657.16;105662;1258;66361;-76
2023/06/21 08:55:27;;;;;;;13.70;9.70;;;;;;;36.49;31.25;99655.80;105543;1260;71315;-76
2023/06/21 08:58:24;;;;;;;13.00;9.10;;;;;;;35.57;32.36;99655.74;105699;1263;59950;-77
2023/06/21 09:01:14;;;;;;;18.40;9.10;;;;;;;34.79;34.08;99653.47;105988;1260;60236;-72
2023/06/21 09:04:05;;;;;;;15.10;10.10;;;;;;;33.98;35.10;99659.27;105570;1262;72332;-66
2023/06/21 09:06:56;;;;;;;14.40;10.80;;;;;;;33.25;36.33;99661.60;105545;1258;66465;-67
2023/06/21 09:09:45;;;;;;;17.90;10.90;;;;;;;32.59;37.36;99661.02;105275;1263;73291;-66
2023/06/21 09:12:34;;;;;;;16.60;10.60;;;;;;;32.15;38.58;99658.46;105187;1260;59193;-66
2023/06/21 09:15:24;;;;;;;15.40;10.90;;;;;;;31.88;39.40;99660.88;105542;1260;61954;-68
2023/06/21 09:18:12;;;;;;;16.70;11.80;;;;;;;31.50;40.28;99663.77;105597;1257;71078;-68
2023/06/21 09:20:59;;;;;;;15.60;11.60;;;;;;;31.12;41.29;99665.77;105423;1260;68445;-67
2023/06/21 09:23:46;;;;;;;18.70;12.40;;;;;;;30.92;41.93;99666.16;105484;1263;73828;-66
2023/06/21 09:26:35;;;;;;;18.60;11.40;;;;;;;30.67;42.78;99662.68;105546;1261;59187;-70
2023/06/21 09:29:22;;;;;;;17.10;11.10;;;;;;;30.88;42.99;99661.96;105513;1262;59406;-71
2023/06/21 09:32:09;;;;;;;17.30;11.30;;;;;;;31.53;41.82;99665.88;105441;1260;69919;-67
2023/06/21 09:34:57;;;;;;;18.40;11.10;;;;;;;32.40;37.06;99657.73;105581;1258;68213;-66
2023/06/21 09:37:43;;;;;;;15.30;10.70;;;;;;;32.12;36.54;99668.36;105648;1261;73705;-67
2023/06/21 09:40:41;;;;;;;14.20;11.00;;;;;;;32.11;36.75;99669.30;105322;1264;59330;-67
2023/06/21 09:43:31;;;;;;;14.50;10.80;;;;;;;32.63;35.91;99672.20;105642;1262;59708;-67
2023/06/21 09:46:19;;;;;;;15.50;10.10;;;;;;;33.30;34.66;99675.49;105185;1261;71837;-66
2023/06/21 09:49:08;;;;;;;16.30;10.40;;;;;;;33.90;33.89;99677.43;105568;1259;68233;-69
2023/06/21 09:51:56;;;;;;;15.80;9.70;;;;;;;34.11;32.52;99673.67;105287;1264;73366;-68
2023/06/21 09:54:44;;;;;;;13.30;9.40;;;;;;;33.93;32.18;99676.98;105534;1262;59186;-68
2023/06/21 09:57:33;;;;;;;12.30;9.10;;;;;;;34.08;31.87;99675.80;105574;1259;59368;-71
2023/06/21 10:00:20;;;;;;;12.70;8.90;;;;;;;34.12;31.89;99662.63;105591;1258;71683;-70
2023/06/21 10:03:07;;;;;;;13.30;9.40;;;;;;;34.28;32.06;99657.34;105871;1260;68595;-70
2023/06/21 10:06:01;;;;;;;13.80;9.10;;;;;;;34.53;32.01;99658.89;105503;1262;73261;-67
2023/06/21 10:08:51;;;;;;;13.20;9.40;;;;;;;34.51;31.92;99657.41;105575;1257;59344;-68
2023/06/21 10:11:38;;;;;;;11.70;9.40;;;;;;;34.77;31.88;99645.96;105867;1257;60800;-67
2023/06/21 10:14:26;;;;;;;12.60;8.80;;;;;;;35.22;31.09;99651.23;105305;1257;69818;-68
2023/06/21 10:17:15;;;;;;;12.30;8.90;;;;;;;35.47;30.39;99652.72;105249;1262;67987;-68
2023/06/21 10:20:04;;;;;;;10.70;8.10;;;;;;;35.56;30.64;99646.64;105296;1263;74317;-70
2023/06/21 10:22:54;;;;;;;11.00;7.60;;;;;;;35.34;30.37;99650.24;105544;1262;59339;-69
2023/06/21 10:25:47;;;;;;;11.80;7.90;;;;;;;34.27;31.50;99657.51;105281;1262;61109;-67
2023/06/21 10:28:42;;;;;;;15.10;8.70;;;;;;;33.82;32.69;99647.79;105118;1262;72130;-67
2023/06/21 10:31:30;;;;;;;15.40;8.60;;;;;;;33.01;34.39;99651.60;105269;1262;68296;-66
2023/06/21 10:34:21;;;;;;;10.50;7.80;;;;;;;32.36;35.11;99646.67;105396;1263;71848;-65
2023/06/21 10:37:18;;;;;;;12.00;7.30;;;;;;;32.05;35.22;99653.70;104938;1265;59453;-65
2023/06/21 10:40:07;;;;;;;11.70;7.40;;;;;;;32.04;34.81;99650.40;105148;1263;61168;-66
2023/06/21 10:43:00;;;;;;;10.30;6.50;;;;;;;32.01;34.54;99654.73;105039;1262;70336;-66
2023/06/21 10:45:49;;;;;;;10.40;6.60;;;;;;;31.46;34.72;99666.68;105210;1263;68432;-67
2023/06/21 10:48:37;;;;;;;11.50;6.90;;;;;;;31.33;35.87;99666.16;105178;1259;72699;-67
2023/06/21 10:51:25;;;;;;;11.20;7.10;;;;;;;31.12;36.02;99669.29;105458;1257;59563;-66
2023/06/21 10:54:12;;;;;;;13.90;7.40;;;;;;;30.55;37.11;99667.91;105732;1259;61140;-67
2023/06/21 10:56:59;;;;;;;9.80;6.90;;;;;;;30.34;37.75;99660.83;105563;1256;70515;-67
2023/06/21 10:59:47;;;;;;;12.70;7.00;;;;;;;30.45;38.05;99659.63;105794;1257;67088;-66
2023/06/21 11:02:34;;;;;;;11.80;8.30;;;;;;;30.68;37.98;99664.01;105566;1257;74345;-65
2023/06/21 11:05:24;;;;;;;12.10;7.20;;;;;;;30.83;37.97;99661.16;105554;1260;59231;-66
2023/06/21 11:08:14;;;;;;;12.10;7.60;;;;;;;30.66;38.23;99657.89;105432;1261;59527;-65
2023/06/21 11:11:02;;;;;;;10.80;7.70;;;;;;;30.34;39.07;99654.96;105576;1258;71852;-67
2023/06/21 11:13:52;;;;;;;15.60;8.60;;;;;;;30.22;39.40;99655.12;105400;1257;67721;-70
2023/06/21 11:16:39;;;;;;;11.60;8.30;;;;;;;30.19;39.62;99653.27;105708;1257;73088;-64
2023/06/21 11:19:29;;;;;;;11.50;8.40;;;;;;;29.94;40.30;99650.27;105582;1260;59261;-65
2023/06/21 11:22:18;;;;;;;12.80;8.90;;;;;;;29.87;40.76;99652.00;105474;1257;61023;-65
2023/06/21 11:25:16;;;;;;;15.20;9.40;;;;;;;29.73;41.32;99648.26;105428;1257;72440;-67
2023/06/21 11:28:23;;;;;;;14.20;9.40;;;;;;;29.73;41.68;99648.16;105417;1257;67697;-70
2023/06/21 11:31:16;;;;;;;14.30;9.30;;;;;;;29.83;41.64;99646.85;105165;1262;71294;-66
2023/06/21 11:34:06;;;;;;;12.70;9.60;;;;;;;29.92;41.29;99644.94;105122;1268;59173;-67
2023/06/21 11:36:54;;;;;;;11.70;9.20;;;;;;;30.00;41.27;99639.48;105736;1261;60470;-67
2023/06/21 11:39:44;;;;;;;12.70;8.50;;;;;;;30.23;40.82;99641.52;105367;1260;70375;-66
2023/06/21 11:42:45;;;;;;;14.40;9.20;;;;;;;30.41;39.72;99652.29;105380;1261;68429;-70
2023/06/21 11:45:35;;;;;;;15.40;9.50;;;;;;;30.69;39.52;99651.23;105623;1264;71204;-72
2023/06/21 11:48:27;;;;;;;12.30;8.70;;;;;;;30.93;39.26;99650.85;105570;1263;59376;-71
2023/06/21 11:51:15;;;;;;;12.70;9.20;;;;;;;31.11;39.06;99644.16;105342;1266;59221;-72
2023/06/21 11:54:02;;;;;;;14.00;9.90;;;;;;;31.17;39.17;99647.50;105313;1260;72017;-71
2023/06/21 11:56:49;;;;;;;12.70;9.20;;;;;;;31.18;39.07;99648.88;105266;1265;66607;-72
2023/06/21 11:59:37;;;;;;;13.20;9.00;;;;;;;31.08;39.32;99642.89;105244;1260;71681;-72
2023/06/21 12:02:24;;;;;;;11.90;8.70;;;;;;;31.21;39.34;99643.13;105457;1257;59320;-71
2023/06/21 12:05:11;;;;;;;14.20;10.20;;;;;;;31.34;39.05;99652.82;105526;1263;59247;-71
2023/06/21 12:07:59;;;;;;;13.10;9.00;;;;;;;31.38;39.07;99642.39;105742;1258;71272;-70
2023/06/21 12:10:47;;;;;;;11.80;8.40;;;;;;;31.45;39.19;99643.91;105387;1266;67870;-75
2023/06/21 12:13:36;;;;;;;13.30;8.50;;;;;;;31.15;39.15;99648.36;105490;1256;71144;-69
2023/06/21 12:16:28;;;;;;;15.20;8.30;;;;;;;31.07;39.58;99645.14;105779;1257;59082;-65
2023/06/21 12:19:14;;;;;;;13.10;8.10;;;;;;;30.89;39.94;99646.91;105749;1257;60907;-68
2023/06/21 12:22:04;;;;;;;13.50;8.40;;;;;;;30.60;40.32;99645.00;105396;1259;72085;-70
2023/06/21 12:24:54;;;;;;;14.90;8.80;;;;;;;30.57;40.35;99653.70;105590;1257;67355;-73
2023/06/21 12:27:58;;;;;;;11.60;7.40;;;;;;;30.47;40.74;99657.53;105887;1257;72583;-69
2023/06/21 12:31:04;;;;;;;12.00;8.10;;;;;;;30.41;40.98;99656.85;105852;1258;59264;-70
2023/06/21 12:33:56;;;;;;;12.80;7.80;;;;;;;30.31;41.21;99650.80;105620;1262;59256;-68
2023/06/21 12:36:46;;;;;;;11.60;7.50;;;;;;;30.06;41.74;99647.83;105477;1260;70854;-72
2023/06/21 12:39:33;;;;;;;13.70;8.10;;;;;;;29.76;42.41;99647.26;105251;1261;67953;-75
2023/06/21 12:42:28;;;;;;;12.20;8.00;;;;;;;29.59;42.85;99644.37;105293;1263;71974;-67
2023/06/21 12:45:21;;;;;;;11.60;7.80;;;;;;;29.44;43.29;99644.46;105041;1263;59291;-67
2023/06/21 12:48:08;;;;;;;14.40;8.00;;;;;;;29.26;43.60;99644.71;105540;1257;60522;-70
2023/06/21 12:50:56;;;;;;;12.10;8.00;;;;;;;29.18;44.28;99649.52;105854;1259;69974;-65
2023/06/21 12:53:42;;;;;;;11.80;8.40;;;;;;;29.07;44.80;99645.77;105333;1256;68149;-64
2023/06/21 12:56:39;;;;;;;13.20;8.50;;;;;;;29.07;45.09;99645.84;105393;1261;74053;-70
2023/06/21 12:59:26;;;;;;;13.30;7.40;;;;;;;29.20;45.00;99647.29;105499;1264;59395;-65
2023/06/21 13:02:13;;;;;;;14.60;7.00;;;;;;;29.42;42.76;99642.06;105143;1257;61737;-68